sensor_id;sensor_type;location;lat;lon;timestamp;temperature;humidity
5196;DHT22;2617;51.006;12.436;2023-06-10T00:03:36;15.80;99.90
5196;DHT22;2617;51.006;12.436;2023-06-10T00:08:38;15.70;99.90
5196;DHT22;2617;51.006;12.436;2023-06-10T00:13:40;15.70;99.90
5196;DHT22;2617;51.006;12.436;2023-06-10T00:18:43;15.60;99.90
5196;DHT22;2617;51.006;12.436;2023-06-10T00:23:45;15.50;99.90
5196;DHT22;2617;51.006;12.436;2023-06-10T00:28:48;15.50;99.90
5196;DHT22;2617;51.006;12.436;2023-06-10T00:33:51;15.40;99.90
5196;DHT22;2617;51.006;12.436;2023-06-10T00:38:53;15.40;99.90
5196;DHT22;2617;51.006;12.436;2023-06-10T00:43:56;15.30;99.90
5196;DHT22;2617;51.006;12.436;2023-06-10T00:48:58;15.30;99.90
5196;DHT22;2617;51.006;12.436;2023-06-10T00:54:01;15.20;99.90
5196;DHT22;2617;51.006;12.436;2023-06-10T00:59:03;15.20;99.90
5196;DHT22;2617;51.006;12.436;2023-06-10T01:04:06;14.90;99.90
5196;DHT22;2617;51.006;12.436;2023-06-10T01:09:18;14.90;99.90
5196;DHT22;2617;51.006;12.436;2023-06-10T01:14:19;14.90;99.90
5196;DHT22;2617;51.006;12.436;2023-06-10T01:19:21;14.90;99.90
5196;DHT22;2617;51.006;12.436;2023-06-10T01:24:24;14.80;99.90
5196;DHT22;2617;51.006;12.436;2023-06-10T01:29:36;14.80;99.90
5196;DHT22;2617;51.006;12.436;2023-06-10T01:34:44;14.80;99.90
5196;DHT22;2617;51.006;12.436;2023-06-10T01:39:48;14.70;99.90
5196;DHT22;2617;51.006;12.436;2023-06-10T01:44:49;14.70;99.90
5196;DHT22;2617;51.006;12.436;2023-06-10T01:49:52;14.60;99.90
5196;DHT22;2617;51.006;12.436;2023-06-10T01:54:54;14.60;99.90
5196;DHT22;2617;51.006;12.436;2023-06-10T01:59:57;14.50;99.90
5196;DHT22;2617;51.006;12.436;2023-06-10T02:04:59;14.60;99.90
5196;DHT22;2617;51.006;12.436;2023-06-10T02:10:02;14.60;99.90
5196;DHT22;2617;51.006;12.436;2023-06-10T02:15:05;14.50;99.90
5196;DHT22;2617;51.006;12.436;2023-06-10T02:20:08;14.40;99.90
5196;DHT22;2617;51.006;12.436;2023-06-10T02:25:10;14.40;99.90
5196;DHT22;2617;51.006;12.436;2023-06-10T02:30:13;14.50;99.90
5196;DHT22;2617;51.006;12.436;2023-06-10T02:35:15;14.40;99.90
5196;DHT22;2617;51.006;12.436;2023-06-10T02:40:18;14.40;99.90
5196;DHT22;2617;51.006;12.436;2023-06-10T02:45:21;14.30;99.90
5196;DHT22;2617;51.006;12.436;2023-06-10T02:50:24;14.10;99.90
5196;DHT22;2617;51.006;12.436;2023-06-10T02:55:26;14.10;99.90
5196;DHT22;2617;51.006;12.436;2023-06-10T03:00:28;14.10;99.90
5196;DHT22;2617;51.006;12.436;2023-06-10T03:05:31;14.10;99.90
5196;DHT22;2617;51.006;12.436;2023-06-10T03:10:34;14.20;99.90
5196;DHT22;2617;51.006;12.436;2023-06-10T03:15:36;14.20;99.90
5196;DHT22;2617;51.006;12.436;2023-06-10T03:20:39;14.30;99.90
5196;DHT22;2617;51.006;12.436;2023-06-10T03:25:41;14.70;99.90
5196;DHT22;2617;51.006;12.436;2023-06-10T03:30:44;15.40;99.90
5196;DHT22;2617;51.006;12.436;2023-06-10T03:35:46;16.20;99.90
5196;DHT22;2617;51.006;12.436;2023-06-10T03:40:49;17.20;99.90
5196;DHT22;2617;51.006;12.436;2023-06-10T03:45:51;18.10;99.90
5196;DHT22;2617;51.006;12.436;2023-06-10T03:50:53;18.70;99.90
5196;DHT22;2617;51.006;12.436;2023-06-10T03:55:56;19.50;99.90
5196;DHT22;2617;51.006;12.436;2023-06-10T04:00:58;20.40;99.90
5196;DHT22;2617;51.006;12.436;2023-06-10T04:06:01;21.30;99.90
5196;DHT22;2617;51.006;12.436;2023-06-10T04:11:03;22.10;98.60
5196;DHT22;2617;51.006;12.436;2023-06-10T04:16:06;22.70;95.80
5196;DHT22;2617;51.006;12.436;2023-06-10T04:21:09;22.70;95.80
5196;DHT22;2617;51.006;12.436;2023-06-10T04:26:12;24.50;92.90
5196;DHT22;2617;51.006;12.436;2023-06-10T04:31:14;24.40;92.70
5196;DHT22;2617;51.006;12.436;2023-06-10T04:36:17;24.90;91.40
5196;DHT22;2617;51.006;12.436;2023-06-10T04:41:20;25.60;90.30
5196;DHT22;2617;51.006;12.436;2023-06-10T04:46:23;25.60;89.80
5196;DHT22;2617;51.006;12.436;2023-06-10T04:51:25;25.90;88.50
5196;DHT22;2617;51.006;12.436;2023-06-10T04:56:27;25.30;89.30
5196;DHT22;2617;51.006;12.436;2023-06-10T05:01:31;24.80;91.40
5196;DHT22;2617;51.006;12.436;2023-06-10T05:06:33;24.80;91.00
5196;DHT22;2617;51.006;12.436;2023-06-10T05:11:35;24.50;91.30
5196;DHT22;2617;51.006;12.436;2023-06-10T05:16:39;24.30;92.60
5196;DHT22;2617;51.006;12.436;2023-06-10T05:21:41;24.20;92.60
5196;DHT22;2617;51.006;12.436;2023-06-10T05:26:43;23.40;94.20
5196;DHT22;2617;51.006;12.436;2023-06-10T05:31:46;22.50;95.90
5196;DHT22;2617;51.006;12.436;2023-06-10T05:36:49;21.70;98.60
5196;DHT22;2617;51.006;12.436;2023-06-10T05:41:51;21.00;99.90
5196;DHT22;2617;51.006;12.436;2023-06-10T05:46:55;19.70;99.90
5196;DHT22;2617;51.006;12.436;2023-06-10T05:51:57;18.70;99.90
5196;DHT22;2617;51.006;12.436;2023-06-10T05:57:00;18.00;99.90
5196;DHT22;2617;51.006;12.436;2023-06-10T06:02:03;18.00;99.90
5196;DHT22;2617;51.006;12.436;2023-06-10T06:07:06;18.00;99.90
5196;DHT22;2617;51.006;12.436;2023-06-10T06:12:09;18.00;99.90
5196;DHT22;2617;51.006;12.436;2023-06-10T06:17:11;17.90;99.90
5196;DHT22;2617;51.006;12.436;2023-06-10T06:22:14;18.30;99.90
5196;DHT22;2617;51.006;12.436;2023-06-10T06:27:16;18.20;99.90
5196;DHT22;2617;51.006;12.436;2023-06-10T06:32:19;18.50;99.90
5196;DHT22;2617;51.006;12.436;2023-06-10T06:37:23;18.50;99.90
5196;DHT22;2617;51.006;12.436;2023-06-10T06:42:26;18.50;99.90
5196;DHT22;2617;51.006;12.436;2023-06-10T06:47:29;18.80;99.90
5196;DHT22;2617;51.006;12.436;2023-06-10T06:52:31;19.20;99.90
5196;DHT22;2617;51.006;12.436;2023-06-10T06:57:33;19.20;99.90
5196;DHT22;2617;51.006;12.436;2023-06-10T07:02:36;18.90;99.90
5196;DHT22;2617;51.006;12.436;2023-06-10T07:07:38;19.10;99.90
5196;DHT22;2617;51.006;12.436;2023-06-10T07:12:41;19.20;99.90
5196;DHT22;2617;51.006;12.436;2023-06-10T07:17:43;19.10;99.90
5196;DHT22;2617;51.006;12.436;2023-06-10T07:22:45;19.20;99.90
5196;DHT22;2617;51.006;12.436;2023-06-10T07:27:49;19.70;99.90
5196;DHT22;2617;51.006;12.436;2023-06-10T07:32:51;19.70;99.90
5196;DHT22;2617;51.006;12.436;2023-06-10T07:37:53;19.70;99.90
5196;DHT22;2617;51.006;12.436;2023-06-10T07:42:56;19.80;99.90
5196;DHT22;2617;51.006;12.436;2023-06-10T07:47:59;20.00;99.90
5196;DHT22;2617;51.006;12.436;2023-06-10T07:53:02;20.30;99.90
5196;DHT22;2617;51.006;12.436;2023-06-10T07:58:04;20.30;99.90
5196;DHT22;2617;51.006;12.436;2023-06-10T08:03:07;20.60;99.90
5196;DHT22;2617;51.006;12.436;2023-06-10T08:08:10;20.90;99.90
5196;DHT22;2617;51.006;12.436;2023-06-10T08:13:13;20.80;99.90
5196;DHT22;2617;51.006;12.436;2023-06-10T08:18:16;20.80;99.90
5196;DHT22;2617;51.006;12.436;2023-06-10T08:23:18;20.90;99.90
5196;DHT22;2617;51.006;12.436;2023-06-10T08:28:20;20.80;99.90
5196;DHT22;2617;51.006;12.436;2023-06-10T08:33:23;20.90;99.90
5196;DHT22;2617;51.006;12.436;2023-06-10T08:38:25;21.00;99.90
5196;DHT22;2617;51.006;12.436;2023-06-10T08:43:45;21.50;99.90
5196;DHT22;2617;51.006;12.436;2023-06-10T08:48:47;21.60;99.90
5196;DHT22;2617;51.006;12.436;2023-06-10T08:53:53;21.80;99.90
5196;DHT22;2617;51.006;12.436;2023-06-10T08:58:53;21.90;99.90
5196;DHT22;2617;51.006;12.436;2023-06-10T09:03:58;21.90;99.90
5196;DHT22;2617;51.006;12.436;2023-06-10T09:09:00;22.50;99.90
5196;DHT22;2617;51.006;12.436;2023-06-10T09:14:02;22.80;99.90
5196;DHT22;2617;51.006;12.436;2023-06-10T09:19:05;22.80;99.90
5196;DHT22;2617;51.006;12.436;2023-06-10T09:24:07;22.60;99.90
5196;DHT22;2617;51.006;12.436;2023-06-10T09:29:09;22.90;99.90
5196;DHT22;2617;51.006;12.436;2023-06-10T09:34:13;22.90;99.90
5196;DHT22;2617;51.006;12.436;2023-06-10T09:39:16;23.70;99.90
5196;DHT22;2617;51.006;12.436;2023-06-10T09:44:20;23.40;99.90
5196;DHT22;2617;51.006;12.436;2023-06-10T09:49:21;23.40;99.90
5196;DHT22;2617;51.006;12.436;2023-06-10T09:54:24;23.60;99.90
5196;DHT22;2617;51.006;12.436;2023-06-10T09:59:29;23.60;99.90
5196;DHT22;2617;51.006;12.436;2023-06-10T10:04:34;23.80;99.90
5196;DHT22;2617;51.006;12.436;2023-06-10T10:09:37;23.80;99.90
5196;DHT22;2617;51.006;12.436;2023-06-10T10:14:39;24.30;99.90
5196;DHT22;2617;51.006;12.436;2023-06-10T10:19:46;25.20;99.10
5196;DHT22;2617;51.006;12.436;2023-06-10T10:24:50;25.50;97.70
5196;DHT22;2617;51.006;12.436;2023-06-10T10:29:52;25.60;96.40
5196;DHT22;2617;51.006;12.436;2023-06-10T10:35:03;25.80;96.20
5196;DHT22;2617;51.006;12.436;2023-06-10T10:40:03;25.60;96.70
5196;DHT22;2617;51.006;12.436;2023-06-10T10:45:07;25.40;96.20
5196;DHT22;2617;51.006;12.436;2023-06-10T10:50:14;25.10;95.50
5196;DHT22;2617;51.006;12.436;2023-06-10T10:55:17;24.70;95.00
5196;DHT22;2617;51.006;12.436;2023-06-10T11:00:29;24.70;95.00
5196;DHT22;2617;51.006;12.436;2023-06-10T11:05:35;25.20;93.90
5196;DHT22;2617;51.006;12.436;2023-06-10T11:10:35;25.70;92.40
5196;DHT22;2617;51.006;12.436;2023-06-10T11:15:47;26.10;90.20
5196;DHT22;2617;51.006;12.436;2023-06-10T11:20:53;26.00;90.50
5196;DHT22;2617;51.006;12.436;2023-06-10T11:31:20;26.10;88.90
5196;DHT22;2617;51.006;12.436;2023-06-10T11:36:23;26.60;89.00
5196;DHT22;2617;51.006;12.436;2023-06-10T11:41:25;26.80;81.60
5196;DHT22;2617;51.006;12.436;2023-06-10T11:46:28;26.80;79.40
5196;DHT22;2617;51.006;12.436;2023-06-10T11:51:35;26.80;80.10
5196;DHT22;2617;51.006;12.436;2023-06-10T11:56:36;26.60;83.40
5196;DHT22;2617;51.006;12.436;2023-06-10T12:01:43;27.30;84.10
5196;DHT22;2617;51.006;12.436;2023-06-10T12:06:46;27.60;79.50
5196;DHT22;2617;51.006;12.436;2023-06-10T12:11:55;27.60;79.40
5196;DHT22;2617;51.006;12.436;2023-06-10T12:16:59;27.30;81.00
5196;DHT22;2617;51.006;12.436;2023-06-10T12:22:02;27.70;80.50
5196;DHT22;2617;51.006;12.436;2023-06-10T12:27:06;27.70;79.10
5196;DHT22;2617;51.006;12.436;2023-06-10T12:32:08;27.60;79.00
5196;DHT22;2617;51.006;12.436;2023-06-10T12:37:12;27.90;79.20
5196;DHT22;2617;51.006;12.436;2023-06-10T12:42:15;27.70;78.20
5196;DHT22;2617;51.006;12.436;2023-06-10T12:47:17;27.80;77.50
5196;DHT22;2617;51.006;12.436;2023-06-10T12:52:20;27.30;81.10
5196;DHT22;2617;51.006;12.436;2023-06-10T12:57:22;27.30;80.20
5196;DHT22;2617;51.006;12.436;2023-06-10T13:02:24;27.40;79.60
5196;DHT22;2617;51.006;12.436;2023-06-10T13:07:27;27.20;79.10
5196;DHT22;2617;51.006;12.436;2023-06-10T13:12:30;27.10;81.30
5196;DHT22;2617;51.006;12.436;2023-06-10T13:17:34;26.90;78.30
5196;DHT22;2617;51.006;12.436;2023-06-10T13:22:37;26.80;78.20
5196;DHT22;2617;51.006;12.436;2023-06-10T13:27:40;25.30;82.50
5196;DHT22;2617;51.006;12.436;2023-06-10T13:32:42;25.30;82.50
5196;DHT22;2617;51.006;12.436;2023-06-10T13:37:45;24.50;86.50
5196;DHT22;2617;51.006;12.436;2023-06-10T13:42:47;24.60;82.50
5196;DHT22;2617;51.006;12.436;2023-06-10T13:47:50;24.60;83.50
5196;DHT22;2617;51.006;12.436;2023-06-10T13:52:53;25.30;83.10
5196;DHT22;2617;51.006;12.436;2023-06-10T13:57:55;25.30;82.20
5196;DHT22;2617;51.006;12.436;2023-06-10T14:02:58;25.70;78.70
5196;DHT22;2617;51.006;12.436;2023-06-10T14:08:01;25.40;77.10
5196;DHT22;2617;51.006;12.436;2023-06-10T14:13:03;25.50;80.80
5196;DHT22;2617;51.006;12.436;2023-06-10T14:18:06;26.10;78.50
5196;DHT22;2617;51.006;12.436;2023-06-10T14:23:09;26.40;75.80
5196;DHT22;2617;51.006;12.436;2023-06-10T14:28:11;26.40;75.70
5196;DHT22;2617;51.006;12.436;2023-06-10T14:33:14;25.90;77.90
5196;DHT22;2617;51.006;12.436;2023-06-10T14:38:16;25.80;79.00
5196;DHT22;2617;51.006;12.436;2023-06-10T14:43:18;25.60;81.50
5196;DHT22;2617;51.006;12.436;2023-06-10T14:48:21;25.30;82.70
5196;DHT22;2617;51.006;12.436;2023-06-10T14:53:23;25.20;84.00
5196;DHT22;2617;51.006;12.436;2023-06-10T14:58:26;25.30;85.60
5196;DHT22;2617;51.006;12.436;2023-06-10T15:03:29;25.10;88.30
5196;DHT22;2617;51.006;12.436;2023-06-10T15:08:31;25.10;89.00
5196;DHT22;2617;51.006;12.436;2023-06-10T15:13:34;25.20;88.00
5196;DHT22;2617;51.006;12.436;2023-06-10T15:18:36;25.20;89.60
5196;DHT22;2617;51.006;12.436;2023-06-10T15:23:39;24.90;89.00
5196;DHT22;2617;51.006;12.436;2023-06-10T15:28:42;24.90;89.00
5196;DHT22;2617;51.006;12.436;2023-06-10T15:33:44;25.20;90.00
5196;DHT22;2617;51.006;12.436;2023-06-10T15:38:48;26.40;84.60
5196;DHT22;2617;51.006;12.436;2023-06-10T15:43:51;26.90;80.70
5196;DHT22;2617;51.006;12.436;2023-06-10T15:48:53;26.90;80.70
5196;DHT22;2617;51.006;12.436;2023-06-10T15:53:56;27.60;80.10
5196;DHT22;2617;51.006;12.436;2023-06-10T15:58:58;27.50;71.20
5196;DHT22;2617;51.006;12.436;2023-06-10T16:04:02;27.30;70.80
5196;DHT22;2617;51.006;12.436;2023-06-10T16:09:05;27.40;70.80
5196;DHT22;2617;51.006;12.436;2023-06-10T16:14:07;27.50;70.30
5196;DHT22;2617;51.006;12.436;2023-06-10T16:19:09;27.30;67.60
5196;DHT22;2617;51.006;12.436;2023-06-10T16:24:13;27.00;66.60
5196;DHT22;2617;51.006;12.436;2023-06-10T16:29:16;26.90;67.80
5196;DHT22;2617;51.006;12.436;2023-06-10T16:34:19;26.90;66.10
5196;DHT22;2617;51.006;12.436;2023-06-10T16:39:21;26.90;66.50
5196;DHT22;2617;51.006;12.436;2023-06-10T16:44:24;26.80;66.20
5196;DHT22;2617;51.006;12.436;2023-06-10T16:49:27;26.80;68.70
5196;DHT22;2617;51.006;12.436;2023-06-10T16:54:29;26.30;78.80
5196;DHT22;2617;51.006;12.436;2023-06-10T16:59:32;25.80;82.40
5196;DHT22;2617;51.006;12.436;2023-06-10T17:04:35;25.40;84.30
5196;DHT22;2617;51.006;12.436;2023-06-10T17:09:37;25.30;86.20
5196;DHT22;2617;51.006;12.436;2023-06-10T17:14:40;25.10;88.60
5196;DHT22;2617;51.006;12.436;2023-06-10T17:19:43;25.10;88.60
5196;DHT22;2617;51.006;12.436;2023-06-10T17:24:45;25.20;76.60
5196;DHT22;2617;51.006;12.436;2023-06-10T17:29:48;25.60;72.50
5196;DHT22;2617;51.006;12.436;2023-06-10T17:34:50;25.70;73.10
5196;DHT22;2617;51.006;12.436;2023-06-10T17:39:53;25.80;71.00
5196;DHT22;2617;51.006;12.436;2023-06-10T17:44:56;25.80;70.90
5196;DHT22;2617;51.006;12.436;2023-06-10T17:49:58;25.70;72.90
5196;DHT22;2617;51.006;12.436;2023-06-10T17:55:01;25.70;75.30
5196;DHT22;2617;51.006;12.436;2023-06-10T18:00:05;25.70;75.30
5196;DHT22;2617;51.006;12.436;2023-06-10T18:05:08;25.60;76.90
5196;DHT22;2617;51.006;12.436;2023-06-10T18:10:10;25.40;77.30
5196;DHT22;2617;51.006;12.436;2023-06-10T18:15:13;25.20;78.40
5196;DHT22;2617;51.006;12.436;2023-06-10T18:20:15;24.90;79.20
5196;DHT22;2617;51.006;12.436;2023-06-10T18:25:18;24.60;81.50
5196;DHT22;2617;51.006;12.436;2023-06-10T18:30:20;24.30;83.10
5196;DHT22;2617;51.006;12.436;2023-06-10T18:35:24;23.70;86.30
5196;DHT22;2617;51.006;12.436;2023-06-10T18:40:27;23.70;86.30
5196;DHT22;2617;51.006;12.436;2023-06-10T18:45:30;23.20;89.00
5196;DHT22;2617;51.006;12.436;2023-06-10T18:50:32;23.20;89.10
5196;DHT22;2617;51.006;12.436;2023-06-10T18:55:35;23.00;89.90
5196;DHT22;2617;51.006;12.436;2023-06-10T19:00:37;22.80;90.40
5196;DHT22;2617;51.006;12.436;2023-06-10T19:05:39;22.60;90.80
5196;DHT22;2617;51.006;12.436;2023-06-10T19:10:42;22.50;91.30
5196;DHT22;2617;51.006;12.436;2023-06-10T19:15:44;22.30;91.70
5196;DHT22;2617;51.006;12.436;2023-06-10T19:20:47;22.10;92.10
5196;DHT22;2617;51.006;12.436;2023-06-10T19:25:49;22.00;92.50
5196;DHT22;2617;51.006;12.436;2023-06-10T19:30:52;21.80;93.00
5196;DHT22;2617;51.006;12.436;2023-06-10T19:35:54;21.60;93.60
5196;DHT22;2617;51.006;12.436;2023-06-10T19:40:56;21.50;93.90
5196;DHT22;2617;51.006;12.436;2023-06-10T19:45:59;21.40;94.60
5196;DHT22;2617;51.006;12.436;2023-06-10T19:51:01;21.20;95.20
5196;DHT22;2617;51.006;12.436;2023-06-10T19:56:05;21.00;95.80
5196;DHT22;2617;51.006;12.436;2023-06-10T20:01:08;20.70;96.70
5196;DHT22;2617;51.006;12.436;2023-06-10T20:06:10;20.70;96.70
5196;DHT22;2617;51.006;12.436;2023-06-10T20:11:13;20.60;97.10
5196;DHT22;2617;51.006;12.436;2023-06-10T20:16:15;20.50;97.90
5196;DHT22;2617;51.006;12.436;2023-06-10T20:21:18;20.30;98.30
5196;DHT22;2617;51.006;12.436;2023-06-10T20:26:20;20.30;99.00
5196;DHT22;2617;51.006;12.436;2023-06-10T20:31:23;20.20;99.50
5196;DHT22;2617;51.006;12.436;2023-06-10T20:36:25;20.10;99.90
5196;DHT22;2617;51.006;12.436;2023-06-10T20:41:28;20.00;99.90
5196;DHT22;2617;51.006;12.436;2023-06-10T20:46:30;19.80;99.90
5196;DHT22;2617;51.006;12.436;2023-06-10T20:51:33;19.70;99.90
5196;DHT22;2617;51.006;12.436;2023-06-10T20:56:36;19.70;99.90
5196;DHT22;2617;51.006;12.436;2023-06-10T21:01:39;19.40;99.90
5196;DHT22;2617;51.006;12.436;2023-06-10T21:06:41;19.30;99.90
5196;DHT22;2617;51.006;12.436;2023-06-10T21:11:45;18.90;99.90
5196;DHT22;2617;51.006;12.436;2023-06-10T21:16:47;18.90;99.90
5196;DHT22;2617;51.006;12.436;2023-06-10T21:21:49;18.80;99.90
5196;DHT22;2617;51.006;12.436;2023-06-10T21:26:52;18.70;99.90
5196;DHT22;2617;51.006;12.436;2023-06-10T21:31:54;18.60;99.90
5196;DHT22;2617;51.006;12.436;2023-06-10T21:36:57;18.40;99.90
5196;DHT22;2617;51.006;12.436;2023-06-10T21:42:00;18.20;99.90
5196;DHT22;2617;51.006;12.436;2023-06-10T21:47:03;18.10;99.90
5196;DHT22;2617;51.006;12.436;2023-06-10T21:52:07;18.00;99.90
5196;DHT22;2617;51.006;12.436;2023-06-10T21:57:10;17.70;99.90
5196;DHT22;2617;51.006;12.436;2023-06-10T22:02:12;17.70;99.90
5196;DHT22;2617;51.006;12.436;2023-06-10T22:07:15;17.60;99.90
5196;DHT22;2617;51.006;12.436;2023-06-10T22:12:17;17.50;99.90
5196;DHT22;2617;51.006;12.436;2023-06-10T22:17:20;17.20;99.90
5196;DHT22;2617;51.006;12.436;2023-06-10T22:22:23;17.20;99.90
5196;DHT22;2617;51.006;12.436;2023-06-10T22:27:25;17.10;99.90
5196;DHT22;2617;51.006;12.436;2023-06-10T22:32:28;17.00;99.90
5196;DHT22;2617;51.006;12.436;2023-06-10T22:37:30;17.00;99.90
5196;DHT22;2617;51.006;12.436;2023-06-10T22:42:33;16.80;99.90
5196;DHT22;2617;51.006;12.436;2023-06-10T22:47:36;16.80;99.90
5196;DHT22;2617;51.006;12.436;2023-06-10T22:52:38;16.70;99.90
5196;DHT22;2617;51.006;12.436;2023-06-10T22:57:42;16.40;99.90
5196;DHT22;2617;51.006;12.436;2023-06-10T23:02:44;16.40;99.90
5196;DHT22;2617;51.006;12.436;2023-06-10T23:07:47;16.20;99.90
5196;DHT22;2617;51.006;12.436;2023-06-10T23:12:50;16.20;99.90
5196;DHT22;2617;51.006;12.436;2023-06-10T23:17:52;16.10;99.90
5196;DHT22;2617;51.006;12.436;2023-06-10T23:22:55;15.90;99.90
5196;DHT22;2617;51.006;12.436;2023-06-10T23:27:58;15.90;99.90
5196;DHT22;2617;51.006;12.436;2023-06-10T23:33:01;15.90;99.90
5196;DHT22;2617;51.006;12.436;2023-06-10T23:38:03;15.90;99.90
5196;DHT22;2617;51.006;12.436;2023-06-10T23:43:06;15.80;99.90
5196;DHT22;2617;51.006;12.436;2023-06-10T23:48:09;15.70;99.90
5196;DHT22;2617;51.006;12.436;2023-06-10T23:53:11;15.40;99.90
5196;DHT22;2617;51.006;12.436;2023-06-10T23:58:14;15.30;99.90
